createdAt,value
2023-01-17T00:00:51.177Z,76.90
2023-01-17T00:03:54.361Z,77.34
2023-01-17T00:07:00.886Z,77.43
2023-01-17T00:09:57.586Z,77.53
2023-01-17T00:12:54.138Z,77.92
2023-01-17T00:15:43.429Z,77.67
2023-01-17T00:18:32.694Z,77.77
2023-01-17T00:21:39.122Z,77.75
2023-01-17T00:24:45.518Z,78.20
2023-01-17T00:27:33.565Z,78.97
2023-01-17T00:30:24.165Z,78.52
2023-01-17T00:33:12.200Z,78.46
2023-01-17T00:36:01.788Z,78.26
2023-01-17T00:38:49.801Z,78.77
2023-01-17T00:41:37.806Z,78.94
2023-01-17T00:44:44.251Z,79.33
2023-01-17T00:47:53.201Z,79.08
2023-01-17T00:50:59.622Z,78.93
2023-01-17T00:54:06.338Z,78.80
2023-01-17T00:57:14.013Z,77.82
2023-01-17T01:00:20.665Z,78.13
2023-01-17T01:03:29.854Z,77.80
2023-01-17T01:06:36.329Z,77.60
2023-01-17T01:09:42.698Z,77.68
2023-01-17T01:12:49.898Z,77.58
2023-01-17T01:16:00.313Z,77.32
2023-01-17T01:19:08.620Z,77.69
2023-01-17T01:22:14.983Z,77.64
2023-01-17T01:25:22.091Z,77.37
2023-01-17T01:28:31.520Z,77.75
2023-01-17T01:31:38.141Z,77.67
2023-01-17T01:34:28.797Z,77.74
2023-01-17T01:37:18.028Z,78.06
2023-01-17T01:40:09.617Z,78.00
2023-01-17T01:43:03.212Z,78.06
2023-01-17T01:45:59.269Z,78.18
2023-01-17T01:48:54.972Z,77.97
2023-01-17T01:51:52.101Z,78.18
2023-01-17T01:54:50.284Z,78.03
2023-01-17T01:57:44.970Z,78.11
2023-01-17T02:00:37.419Z,77.77
2023-01-17T02:03:30.767Z,77.42
2023-01-17T02:06:31.467Z,77.74
2023-01-17T02:09:22.141Z,77.39
2023-01-17T02:12:12.269Z,77.73
2023-01-17T02:15:02.097Z,77.89
2023-01-17T02:18:04.085Z,77.56
2023-01-17T02:21:17.105Z,77.81
2023-01-17T02:25:00.678Z,77.61
2023-01-17T02:28:10.016Z,77.50
2023-01-17T02:31:05.705Z,77.31
2023-01-17T02:34:00.924Z,77.48
2023-01-17T02:37:02.391Z,77.83
2023-01-17T02:39:59.774Z,77.88
2023-01-17T02:42:56.436Z,77.76
2023-01-17T02:45:46.034Z,77.75
2023-01-17T02:48:39.201Z,77.96
2023-01-17T02:52:05.869Z,78.09
2023-01-17T02:55:14.500Z,78.26
2023-01-17T02:58:19.579Z,77.90
2023-01-17T03:01:22.437Z,77.94
2023-01-17T03:04:19.693Z,78.02
2023-01-17T03:07:17.600Z,78.48
2023-01-17T03:10:09.487Z,78.84
2023-01-17T03:13:01.075Z,78.95
2023-01-17T03:15:50.728Z,79.42
2023-01-17T03:18:40.075Z,79.82
2023-01-17T03:21:30.982Z,80.44
2023-01-17T03:24:20.157Z,79.79
2023-01-17T03:27:09.441Z,79.64
2023-01-17T03:29:58.664Z,79.63
2023-01-17T03:32:48.010Z,79.52
2023-01-17T03:35:37.349Z,79.84
2023-01-17T03:38:29.287Z,80.05
2023-01-17T03:41:18.620Z,80.35
2023-01-17T03:44:07.888Z,79.81
2023-01-17T03:46:57.102Z,80.63
2023-01-17T03:49:46.343Z,79.89
2023-01-17T03:52:35.603Z,79.97
2023-01-17T03:55:26.320Z,79.99
2023-01-17T03:58:16.385Z,80.28
2023-01-17T04:01:05.772Z,79.93
2023-01-17T04:03:55.454Z,79.79
2023-01-17T04:06:46.078Z,80.12
2023-01-17T04:09:35.619Z,80.00
2023-01-17T04:12:26.399Z,80.20
2023-01-17T04:15:15.858Z,79.73
2023-01-17T04:18:07.713Z,79.76
2023-01-17T04:20:56.951Z,79.90
2023-01-17T04:23:46.224Z,79.79
2023-01-17T04:26:35.382Z,79.62
2023-01-17T04:29:26.630Z,79.36
2023-01-17T04:32:16.130Z,79.50
2023-01-17T04:35:07.224Z,79.49
2023-01-17T04:37:56.441Z,80.07
2023-01-17T04:40:45.670Z,80.50
2023-01-17T04:43:35.117Z,79.98
2023-01-17T04:46:25.879Z,80.56
2023-01-17T04:49:15.125Z,80.10
2023-01-17T04:52:04.417Z,80.34
2023-01-17T04:54:53.749Z,80.47
2023-01-17T04:57:43.047Z,79.88
2023-01-17T05:00:32.364Z,79.83
2023-01-17T05:03:24.460Z,80.45
2023-01-17T05:06:13.772Z,80.33
2023-01-17T05:09:03.943Z,80.28
2023-01-17T05:11:53.320Z,79.84
2023-01-17T05:14:42.504Z,79.94
2023-01-17T05:17:31.683Z,79.73
2023-01-17T05:20:23.302Z,79.67
2023-01-17T05:23:13.199Z,79.74
2023-01-17T05:26:02.489Z,79.71
2023-01-17T05:28:52.267Z,79.95
2023-01-17T05:31:41.440Z,79.76
2023-01-17T05:34:30.616Z,79.77
2023-01-17T05:37:21.239Z,80.01
2023-01-17T05:40:12.749Z,79.88
2023-01-17T05:43:04.197Z,79.88
2023-01-17T05:45:53.473Z,79.87
2023-01-17T05:48:42.780Z,79.80
2023-01-17T05:51:31.930Z,79.84
2023-01-17T05:54:22.512Z,79.60
2023-01-17T05:57:12.301Z,80.19
2023-01-17T06:00:01.623Z,79.62
2023-01-17T06:02:51.932Z,79.76
2023-01-17T06:05:41.341Z,79.65
2023-01-17T06:08:30.799Z,80.06
2023-01-17T06:11:21.443Z,79.43
2023-01-17T06:14:10.980Z,79.38
2023-01-17T06:17:00.198Z,79.59
2023-01-17T06:19:49.403Z,79.65
2023-01-17T06:22:38.900Z,79.80
2023-01-17T06:25:28.155Z,79.89
2023-01-17T06:28:21.271Z,79.55
2023-01-17T06:31:10.433Z,79.92
2023-01-17T06:34:03.134Z,79.87
2023-01-17T06:36:52.298Z,80.06
2023-01-17T06:39:41.543Z,80.11
2023-01-17T06:42:30.743Z,79.72
2023-01-17T06:45:22.180Z,80.12
2023-01-17T06:48:11.569Z,79.93
2023-01-17T06:51:00.909Z,80.20
2023-01-17T06:53:50.204Z,79.88
2023-01-17T06:56:39.459Z,80.21
2023-01-17T06:59:29.193Z,80.00
2023-01-17T07:02:19.887Z,80.15
2023-01-17T07:05:10.076Z,79.77
2023-01-17T07:07:59.729Z,80.24
2023-01-17T07:10:50.221Z,79.90
2023-01-17T07:13:40.601Z,80.21
2023-01-17T07:16:30.158Z,79.89
2023-01-17T07:19:20.793Z,79.90
2023-01-17T07:22:12.207Z,80.53
2023-01-17T07:25:01.577Z,80.27
2023-01-17T07:27:54.029Z,80.19
2023-01-17T07:30:43.266Z,80.44
2023-01-17T07:33:32.516Z,80.59
2023-01-17T07:36:23.081Z,80.13
2023-01-17T07:39:12.614Z,80.10
2023-01-17T07:42:01.878Z,80.18
2023-01-17T07:44:51.138Z,80.34
2023-01-17T07:47:40.728Z,80.25
2023-01-17T07:50:30.042Z,80.60
2023-01-17T07:53:20.751Z,80.04
2023-01-17T07:56:10.228Z,80.11
2023-01-17T07:58:59.470Z,80.08
2023-01-17T08:01:48.923Z,79.96
2023-01-17T08:04:38.178Z,80.05
2023-01-17T08:07:27.436Z,79.77
2023-01-17T08:10:18.830Z,79.39
2023-01-17T08:13:08.141Z,79.69
2023-01-17T08:15:57.389Z,79.65
2023-01-17T08:18:46.659Z,79.57
2023-01-17T08:21:36.033Z,79.19
2023-01-17T08:24:25.201Z,79.49
2023-01-17T08:27:15.884Z,79.50
2023-01-17T08:30:06.239Z,79.41
2023-01-17T08:32:55.661Z,79.27
2023-01-17T08:35:53.581Z,79.09
2023-01-17T08:38:42.806Z,78.97
2023-01-17T08:41:32.321Z,79.06
2023-01-17T08:44:23.362Z,78.69
2023-01-17T08:47:12.860Z,79.04
2023-01-17T08:50:02.219Z,78.87
2023-01-17T08:52:53.423Z,79.04
2023-01-17T08:55:42.684Z,78.89
2023-01-17T08:58:34.090Z,78.84
2023-01-17T09:01:24.795Z,78.71
2023-01-17T09:04:15.041Z,79.25
2023-01-17T09:07:07.562Z,78.92
2023-01-17T09:09:56.794Z,79.15
2023-01-17T09:12:45.975Z,79.20
2023-01-17T09:15:35.605Z,78.86
2023-01-17T09:18:26.296Z,78.91
2023-01-17T09:21:18.358Z,78.97
2023-01-17T09:24:08.151Z,78.73
2023-01-17T09:26:57.454Z,78.80
2023-01-17T09:29:46.740Z,78.78
2023-01-17T09:32:36.365Z,78.61
2023-01-17T09:35:27.197Z,78.71
2023-01-17T09:38:16.526Z,78.75
2023-01-17T09:41:27.746Z,78.67
2023-01-17T09:44:27.196Z,78.53
2023-01-17T09:47:30.311Z,78.76
2023-01-17T09:50:31.622Z,78.58
2023-01-17T09:53:22.302Z,78.80
2023-01-17T09:56:16.976Z,78.61
2023-01-17T09:59:32.773Z,78.92
2023-01-17T10:02:46.911Z,78.25
2023-01-17T10:05:57.494Z,78.64
2023-01-17T10:09:12.190Z,77.80
2023-01-17T10:12:20.331Z,78.24
2023-01-17T10:16:00.169Z,78.26
2023-01-17T10:19:28.767Z,78.02
2023-01-17T10:22:38.253Z,77.95
2023-01-17T10:25:43.026Z,78.09
2023-01-17T10:28:39.382Z,78.29
2023-01-17T10:31:33.149Z,77.98
2023-01-17T10:34:28.956Z,78.34
2023-01-17T10:37:25.563Z,78.11
2023-01-17T10:40:21.765Z,78.16
2023-01-17T10:43:19.056Z,77.44
2023-01-17T10:46:20.224Z,77.91
2023-01-17T10:49:19.195Z,77.77
2023-01-17T10:52:17.118Z,77.33
2023-01-17T10:55:25.163Z,77.65
2023-01-17T10:58:14.812Z,77.43
2023-01-17T11:01:14.064Z,77.31
2023-01-17T11:04:03.572Z,77.47
2023-01-17T11:07:13.968Z,77.59
2023-01-17T11:10:03.282Z,77.73
2023-01-17T11:12:54.013Z,77.86
2023-01-17T11:15:49.891Z,78.13
2023-01-17T11:18:41.220Z,78.09
2023-01-17T11:21:30.794Z,77.86
2023-01-17T11:24:31.637Z,77.32
2023-01-17T11:27:27.586Z,77.53
2023-01-17T11:30:22.069Z,77.16
2023-01-17T11:33:35.393Z,77.53
2023-01-17T11:36:27.586Z,77.33
2023-01-17T11:39:29.796Z,77.55
2023-01-17T11:42:37.305Z,76.87
2023-01-17T11:45:30.511Z,77.04
2023-01-17T11:48:19.676Z,77.20
2023-01-17T11:51:28.268Z,77.36
2023-01-17T11:54:25.700Z,78.07
2023-01-17T11:57:24.209Z,73.72
2023-01-17T12:00:23.056Z,72.50
2023-01-17T12:03:28.930Z,69.57
2023-01-17T12:06:27.804Z,68.58
2023-01-17T12:09:28.703Z,64.12
2023-01-17T12:12:49.240Z,67.17
2023-01-17T12:15:57.836Z,61.00
2023-01-17T12:18:59.716Z,61.72
2023-01-17T12:22:00.390Z,62.50
2023-01-17T12:25:12.022Z,63.53
2023-01-17T12:28:32.797Z,63.97
2023-01-17T12:31:35.187Z,64.69
2023-01-17T12:34:31.221Z,63.64
2023-01-17T12:37:29.630Z,63.75
2023-01-17T12:40:27.345Z,62.62
2023-01-17T12:43:25.048Z,62.81
2023-01-17T12:46:21.451Z,62.43
2023-01-17T12:49:25.643Z,61.26
2023-01-17T12:52:26.263Z,61.38
2023-01-17T12:55:24.434Z,61.25
2023-01-17T12:58:24.865Z,61.16
2023-01-17T13:01:25.174Z,60.06
2023-01-17T13:04:24.088Z,60.17
2023-01-17T13:07:28.011Z,59.14
2023-01-17T13:10:35.432Z,59.93
2023-01-17T13:13:27.484Z,59.89
2023-01-17T13:16:20.490Z,59.84
2023-01-17T13:19:21.604Z,60.11
2023-01-17T13:22:18.102Z,60.98
2023-01-17T13:25:29.982Z,60.54
2023-01-17T13:28:32.427Z,61.31
2023-01-17T13:31:36.682Z,61.54
2023-01-17T13:35:01.630Z,61.00
2023-01-17T13:38:26.178Z,61.38
2023-01-17T13:41:41.843Z,63.38
2023-01-17T13:44:32.261Z,63.46
2023-01-17T13:47:52.631Z,66.20
2023-01-17T13:50:51.113Z,66.46
2023-01-17T13:53:59.533Z,68.08
2023-01-17T13:56:50.278Z,67.70
2023-01-17T13:59:40.544Z,69.47
2023-01-17T14:02:38.766Z,69.37
2023-01-17T14:05:49.376Z,69.81
2023-01-17T14:08:45.601Z,70.15
2023-01-17T14:11:36.457Z,70.30
2023-01-17T14:14:51.289Z,71.35
2023-01-17T14:18:00.730Z,70.69
2023-01-17T14:21:07.306Z,70.91
2023-01-17T14:24:05.381Z,71.25
2023-01-17T14:26:59.010Z,71.18
2023-01-17T14:29:56.002Z,71.95
2023-01-17T14:33:21.323Z,72.21
2023-01-17T14:36:22.250Z,72.00
2023-01-17T14:39:23.466Z,71.96
2023-01-17T14:42:17.034Z,72.90
2023-01-17T14:45:10.803Z,72.19
2023-01-17T14:48:03.208Z,72.39
2023-01-17T14:50:54.368Z,72.42
2023-01-17T14:53:55.681Z,72.80
2023-01-17T14:56:44.929Z,72.70
2023-01-17T14:59:34.177Z,73.24
2023-01-17T15:02:25.031Z,72.88
2023-01-17T15:05:22.095Z,72.91
2023-01-17T15:08:14.468Z,72.83
2023-01-17T15:11:07.258Z,72.44
2023-01-17T15:13:59.395Z,72.87
2023-01-17T15:16:52.107Z,72.89
2023-01-17T15:19:49.303Z,72.97
2023-01-17T15:22:39.387Z,73.22
2023-01-17T15:25:29.344Z,73.40
2023-01-17T15:28:19.649Z,72.91
2023-01-17T15:31:15.924Z,72.97
2023-01-17T15:34:09.212Z,73.38
2023-01-17T15:37:03.740Z,73.37
2023-01-17T15:39:52.989Z,72.80
2023-01-17T15:42:46.250Z,73.43
2023-01-17T15:45:36.135Z,72.37
2023-01-17T15:48:41.610Z,72.89
2023-01-17T15:51:38.899Z,73.43
2023-01-17T15:54:47.597Z,72.98
2023-01-17T15:57:38.947Z,73.64
2023-01-17T16:00:37.814Z,73.36
2023-01-17T16:03:30.342Z,73.45
2023-01-17T16:06:38.271Z,74.46
2023-01-17T16:09:27.551Z,74.31
2023-01-17T16:12:18.649Z,75.42
2023-01-17T16:15:13.555Z,75.68
2023-01-17T16:18:07.533Z,75.62
2023-01-17T16:21:01.598Z,75.61
2023-01-17T16:23:51.869Z,76.61
2023-01-17T16:26:41.271Z,77.82
2023-01-17T16:29:31.962Z,77.32
2023-01-17T16:32:21.595Z,78.02
2023-01-17T16:35:19.281Z,78.09
2023-01-17T16:38:12.360Z,77.78
2023-01-17T16:41:05.169Z,79.17
2023-01-17T16:44:01.239Z,78.32
2023-01-17T16:46:51.968Z,78.62
2023-01-17T16:49:41.204Z,78.33
2023-01-17T16:52:30.558Z,78.56
2023-01-17T16:55:23.779Z,78.48
2023-01-17T16:58:13.241Z,78.92
2023-01-17T17:01:02.557Z,78.76
2023-01-17T17:03:53.173Z,79.15
2023-01-17T17:06:42.575Z,78.95
2023-01-17T17:09:31.760Z,79.16
2023-01-17T17:12:21.030Z,79.17
2023-01-17T17:15:12.254Z,78.69
2023-01-17T17:18:01.714Z,79.04
2023-01-17T17:20:52.417Z,78.80
2023-01-17T17:23:41.951Z,79.54
2023-01-17T17:26:35.260Z,79.63
2023-01-17T17:29:24.660Z,79.10
2023-01-17T17:32:13.937Z,79.42
2023-01-17T17:35:03.255Z,79.12
2023-01-17T17:37:54.402Z,79.58
2023-01-17T17:40:46.007Z,79.37
2023-01-17T17:43:41.516Z,79.56
2023-01-17T17:46:33.813Z,79.65
2023-01-17T17:49:23.215Z,79.71
2023-01-17T17:52:12.368Z,79.96
2023-01-17T17:55:03.281Z,79.80
2023-01-17T17:57:52.739Z,79.89
2023-01-17T18:00:42.081Z,79.79
2023-01-17T18:03:32.000Z,80.32
2023-01-17T18:06:21.702Z,79.79
2023-01-17T18:09:13.018Z,79.95
2023-01-17T18:12:04.062Z,80.47
2023-01-17T18:14:53.373Z,80.46
2023-01-17T18:17:42.761Z,80.13
2023-01-17T18:20:32.047Z,80.61
2023-01-17T18:23:21.479Z,80.23
2023-01-17T18:26:18.585Z,80.59
2023-01-17T18:29:14.292Z,80.48
2023-01-17T18:32:03.579Z,80.12
2023-01-17T18:34:52.760Z,80.86
2023-01-17T18:37:42.003Z,81.18
2023-01-17T18:40:31.245Z,81.45
2023-01-17T18:43:20.384Z,81.88
2023-01-17T18:46:12.069Z,82.08
2023-01-17T18:49:01.664Z,81.44
2023-01-17T18:51:51.858Z,81.46
2023-01-17T18:54:41.286Z,81.79
2023-01-17T18:57:30.493Z,82.08
2023-01-17T19:00:21.613Z,82.49
2023-01-17T19:03:12.299Z,82.75
2023-01-17T19:06:02.869Z,82.79
2023-01-17T19:08:52.871Z,82.64
2023-01-17T19:11:43.154Z,83.05
2023-01-17T19:14:32.497Z,83.16
2023-01-17T19:17:21.703Z,82.91
2023-01-17T19:20:14.382Z,83.05
2023-01-17T19:23:03.703Z,82.90
2023-01-17T19:25:56.670Z,83.09
2023-01-17T19:28:48.914Z,83.06
2023-01-17T19:31:42.771Z,83.24
2023-01-17T19:34:32.697Z,83.18
2023-01-17T19:37:23.318Z,83.17
2023-01-17T19:40:14.118Z,82.56
2023-01-17T19:43:04.574Z,82.93
2023-01-17T19:45:59.151Z,82.72
2023-01-17T19:48:48.403Z,82.60
2023-01-17T19:51:39.433Z,82.73
2023-01-17T19:54:30.109Z,82.74
2023-01-17T19:57:22.106Z,83.20
2023-01-17T20:00:16.710Z,83.38
2023-01-17T20:03:06.351Z,83.09
2023-01-17T20:05:58.715Z,83.08
2023-01-17T20:08:48.116Z,83.28
2023-01-17T20:11:39.088Z,82.90
2023-01-17T20:14:28.406Z,83.29
2023-01-17T20:17:17.894Z,83.10
2023-01-17T20:20:12.760Z,83.48
2023-01-17T20:23:05.552Z,83.43
2023-01-17T20:25:59.043Z,83.61
2023-01-17T20:28:52.514Z,83.19
2023-01-17T20:31:43.530Z,83.19
2023-01-17T20:34:32.894Z,83.26
2023-01-17T20:37:22.323Z,83.45
2023-01-17T20:40:13.659Z,83.21
2023-01-17T20:43:02.883Z,83.45
2023-01-17T20:45:58.056Z,84.17
2023-01-17T20:48:48.830Z,83.75
2023-01-17T20:51:40.099Z,84.04
2023-01-17T20:54:29.399Z,83.46
2023-01-17T20:57:18.623Z,83.62
2023-01-17T21:00:11.065Z,84.24
2023-01-17T21:03:01.869Z,84.49
2023-01-17T21:05:51.184Z,84.69
2023-01-17T21:08:43.506Z,83.97
2023-01-17T21:11:34.156Z,83.42
2023-01-17T21:14:23.915Z,84.33
2023-01-17T21:17:16.188Z,84.43
2023-01-17T21:20:08.172Z,84.19
2023-01-17T21:22:57.487Z,84.18
2023-01-17T21:25:57.950Z,84.14
2023-01-17T21:28:49.511Z,84.23
2023-01-17T21:31:40.966Z,84.33
2023-01-17T21:34:32.083Z,84.61
2023-01-17T21:37:23.597Z,84.51
2023-01-17T21:40:17.161Z,84.37
2023-01-17T21:43:06.500Z,84.37
2023-01-17T21:45:55.865Z,84.27
2023-01-17T21:48:45.549Z,84.18
2023-01-17T21:51:58.673Z,84.67
2023-01-17T21:55:06.750Z,84.25
2023-01-17T21:58:13.108Z,84.86
2023-01-17T22:01:11.152Z,84.81
2023-01-17T22:04:04.800Z,84.71
2023-01-17T22:06:54.116Z,84.33
2023-01-17T22:09:43.373Z,84.64
2023-01-17T22:12:34.165Z,84.37
2023-01-17T22:15:23.993Z,84.24
2023-01-17T22:18:15.842Z,84.13
2023-01-17T22:21:08.419Z,84.11
2023-01-17T22:23:59.516Z,84.01
2023-01-17T22:26:48.864Z,83.90
2023-01-17T22:29:39.632Z,83.80
2023-01-17T22:32:28.948Z,83.92
2023-01-17T22:35:18.290Z,84.12
2023-01-17T22:38:07.905Z,83.73
2023-01-17T22:41:07.971Z,84.13
2023-01-17T22:44:02.171Z,84.16
2023-01-17T22:46:52.761Z,84.48
2023-01-17T22:49:42.044Z,84.18
2023-01-17T22:52:31.335Z,84.13
2023-01-17T22:55:21.677Z,83.84
2023-01-17T22:58:11.004Z,84.25
2023-01-17T23:01:06.642Z,84.47
2023-01-17T23:04:00.316Z,84.43
2023-01-17T23:06:49.635Z,84.06
2023-01-17T23:09:38.908Z,84.13
2023-01-17T23:12:28.169Z,84.30
2023-01-17T23:15:40.670Z,84.07
2023-01-17T23:18:47.372Z,84.46
2023-01-17T23:21:55.588Z,84.79
2023-01-17T23:24:47.748Z,84.90
2023-01-17T23:27:56.644Z,84.72
2023-01-17T23:30:48.006Z,84.97
2023-01-17T23:33:37.266Z,84.65
2023-01-17T23:36:26.409Z,84.75
2023-01-17T23:39:17.515Z,84.48
2023-01-17T23:42:32.914Z,84.55
2023-01-17T23:45:22.197Z,84.66
2023-01-17T23:48:11.769Z,84.28
2023-01-17T23:51:08.035Z,84.46
2023-01-17T23:54:05.346Z,84.93
2023-01-17T23:56:56.128Z,84.90
2023-01-17T23:59:45.468Z,84.55
